sensor_id;sensor_type;location;lat;lon;timestamp;temperature;humidity
6018;DHT22;3037;51.068;13.780;2024-01-25T00:00:41;8.50;1.00
6018;DHT22;3037;51.068;13.780;2024-01-25T00:03:07;8.60;1.00
6018;DHT22;3037;51.068;13.780;2024-01-25T00:05:32;8.50;1.00
6018;DHT22;3037;51.068;13.780;2024-01-25T00:07:58;8.50;1.00
6018;DHT22;3037;51.068;13.780;2024-01-25T00:10:23;8.50;1.00
6018;DHT22;3037;51.068;13.780;2024-01-25T00:12:49;8.50;1.00
6018;DHT22;3037;51.068;13.780;2024-01-25T00:15:15;8.50;1.00
6018;DHT22;3037;51.068;13.780;2024-01-25T00:17:41;8.50;1.00
6018;DHT22;3037;51.068;13.780;2024-01-25T00:20:09;8.40;1.00
6018;DHT22;3037;51.068;13.780;2024-01-25T00:22:35;8.50;1.00
6018;DHT22;3037;51.068;13.780;2024-01-25T00:25:02;8.40;1.00
6018;DHT22;3037;51.068;13.780;2024-01-25T00:27:27;8.50;1.00
6018;DHT22;3037;51.068;13.780;2024-01-25T00:29:53;8.50;1.00
6018;DHT22;3037;51.068;13.780;2024-01-25T00:32:18;8.50;1.00
6018;DHT22;3037;51.068;13.780;2024-01-25T00:34:44;8.60;1.00
6018;DHT22;3037;51.068;13.780;2024-01-25T00:37:10;8.60;1.00
6018;DHT22;3037;51.068;13.780;2024-01-25T00:39:36;8.60;1.00
6018;DHT22;3037;51.068;13.780;2024-01-25T00:42:05;8.60;1.00
6018;DHT22;3037;51.068;13.780;2024-01-25T00:44:32;8.60;1.00
6018;DHT22;3037;51.068;13.780;2024-01-25T00:46:57;8.60;1.00
6018;DHT22;3037;51.068;13.780;2024-01-25T00:49:23;8.60;1.00
6018;DHT22;3037;51.068;13.780;2024-01-25T00:51:50;8.60;1.00
6018;DHT22;3037;51.068;13.780;2024-01-25T00:54:21;8.60;1.00
6018;DHT22;3037;51.068;13.780;2024-01-25T00:56:47;8.60;1.00
6018;DHT22;3037;51.068;13.780;2024-01-25T00:59:16;8.60;1.00
6018;DHT22;3037;51.068;13.780;2024-01-25T01:01:43;8.60;1.00
6018;DHT22;3037;51.068;13.780;2024-01-25T01:04:11;8.60;1.00
6018;DHT22;3037;51.068;13.780;2024-01-25T01:06:37;8.60;1.00
6018;DHT22;3037;51.068;13.780;2024-01-25T01:09:03;8.60;1.00
6018;DHT22;3037;51.068;13.780;2024-01-25T01:11:29;8.50;1.00
6018;DHT22;3037;51.068;13.780;2024-01-25T01:13:55;8.50;1.00
6018;DHT22;3037;51.068;13.780;2024-01-25T01:16:20;8.50;1.00
6018;DHT22;3037;51.068;13.780;2024-01-25T01:18:46;8.50;1.00
6018;DHT22;3037;51.068;13.780;2024-01-25T01:21:11;8.50;1.00
6018;DHT22;3037;51.068;13.780;2024-01-25T01:23:37;8.50;1.00
6018;DHT22;3037;51.068;13.780;2024-01-25T01:26:04;8.60;1.00
6018;DHT22;3037;51.068;13.780;2024-01-25T01:28:29;8.50;1.00
6018;DHT22;3037;51.068;13.780;2024-01-25T01:30:55;8.50;1.00
6018;DHT22;3037;51.068;13.780;2024-01-25T01:33:20;8.50;1.00
6018;DHT22;3037;51.068;13.780;2024-01-25T01:35:46;8.50;1.00
6018;DHT22;3037;51.068;13.780;2024-01-25T01:38:11;8.60;1.00
6018;DHT22;3037;51.068;13.780;2024-01-25T01:40:37;8.60;1.00
6018;DHT22;3037;51.068;13.780;2024-01-25T01:43:02;8.60;1.00
6018;DHT22;3037;51.068;13.780;2024-01-25T01:45:29;8.60;1.00
6018;DHT22;3037;51.068;13.780;2024-01-25T01:47:55;8.50;1.00
6018;DHT22;3037;51.068;13.780;2024-01-25T01:50:21;8.50;1.00
6018;DHT22;3037;51.068;13.780;2024-01-25T01:52:48;8.50;1.00
6018;DHT22;3037;51.068;13.780;2024-01-25T01:55:15;8.50;1.00
6018;DHT22;3037;51.068;13.780;2024-01-25T01:57:41;8.50;1.00
6018;DHT22;3037;51.068;13.780;2024-01-25T02:00:09;8.50;1.00
6018;DHT22;3037;51.068;13.780;2024-01-25T02:02:35;8.50;1.00
6018;DHT22;3037;51.068;13.780;2024-01-25T02:05:01;8.50;1.00
6018;DHT22;3037;51.068;13.780;2024-01-25T02:07:27;8.60;1.00
6018;DHT22;3037;51.068;13.780;2024-01-25T02:09:52;8.50;1.00
6018;DHT22;3037;51.068;13.780;2024-01-25T02:12:18;8.40;1.00
6018;DHT22;3037;51.068;13.780;2024-01-25T02:14:43;8.50;1.00
6018;DHT22;3037;51.068;13.780;2024-01-25T02:17:09;8.50;1.00
6018;DHT22;3037;51.068;13.780;2024-01-25T02:19:35;8.50;1.00
6018;DHT22;3037;51.068;13.780;2024-01-25T02:22:01;8.50;1.00
6018;DHT22;3037;51.068;13.780;2024-01-25T02:24:29;8.50;1.00
6018;DHT22;3037;51.068;13.780;2024-01-25T02:26:56;8.50;1.00
6018;DHT22;3037;51.068;13.780;2024-01-25T02:29:22;8.40;1.00
6018;DHT22;3037;51.068;13.780;2024-01-25T02:31:48;8.40;1.00
6018;DHT22;3037;51.068;13.780;2024-01-25T02:34:13;8.40;1.00
6018;DHT22;3037;51.068;13.780;2024-01-25T02:36:39;8.50;1.00
6018;DHT22;3037;51.068;13.780;2024-01-25T02:39:04;8.50;1.00
6018;DHT22;3037;51.068;13.780;2024-01-25T02:41:31;8.50;1.00
6018;DHT22;3037;51.068;13.780;2024-01-25T02:43:57;8.50;1.00
6018;DHT22;3037;51.068;13.780;2024-01-25T02:46:22;8.50;1.00
6018;DHT22;3037;51.068;13.780;2024-01-25T02:48:48;8.50;1.00
6018;DHT22;3037;51.068;13.780;2024-01-25T02:51:14;8.50;1.00
6018;DHT22;3037;51.068;13.780;2024-01-25T02:53:40;8.50;1.00
6018;DHT22;3037;51.068;13.780;2024-01-25T02:56:06;8.50;1.00
6018;DHT22;3037;51.068;13.780;2024-01-25T02:58:31;8.40;1.00
6018;DHT22;3037;51.068;13.780;2024-01-25T03:00:57;8.40;1.00
6018;DHT22;3037;51.068;13.780;2024-01-25T03:03:22;8.40;1.00
6018;DHT22;3037;51.068;13.780;2024-01-25T03:05:49;8.40;1.00
6018;DHT22;3037;51.068;13.780;2024-01-25T03:08:14;8.40;1.00
6018;DHT22;3037;51.068;13.780;2024-01-25T03:10:40;8.40;1.00
6018;DHT22;3037;51.068;13.780;2024-01-25T03:13:05;8.40;1.00
6018;DHT22;3037;51.068;13.780;2024-01-25T03:15:31;8.40;1.00
6018;DHT22;3037;51.068;13.780;2024-01-25T03:17:57;8.40;1.00
6018;DHT22;3037;51.068;13.780;2024-01-25T03:20:23;8.40;1.00
6018;DHT22;3037;51.068;13.780;2024-01-25T03:22:48;8.40;1.00
6018;DHT22;3037;51.068;13.780;2024-01-25T03:25:14;8.30;1.00
6018;DHT22;3037;51.068;13.780;2024-01-25T03:27:39;8.30;1.00
6018;DHT22;3037;51.068;13.780;2024-01-25T03:30:05;8.30;1.00
6018;DHT22;3037;51.068;13.780;2024-01-25T03:32:32;8.30;1.00
6018;DHT22;3037;51.068;13.780;2024-01-25T03:34:58;8.30;1.00
6018;DHT22;3037;51.068;13.780;2024-01-25T03:37:23;8.20;1.00
6018;DHT22;3037;51.068;13.780;2024-01-25T03:39:49;8.20;1.00
6018;DHT22;3037;51.068;13.780;2024-01-25T03:42:14;8.20;1.00
6018;DHT22;3037;51.068;13.780;2024-01-25T03:44:40;8.20;1.00
6018;DHT22;3037;51.068;13.780;2024-01-25T03:47:07;8.20;1.00
6018;DHT22;3037;51.068;13.780;2024-01-25T03:49:33;8.30;1.00
6018;DHT22;3037;51.068;13.780;2024-01-25T03:51:58;8.20;1.00
6018;DHT22;3037;51.068;13.780;2024-01-25T03:54:23;8.30;1.00
6018;DHT22;3037;51.068;13.780;2024-01-25T03:56:49;8.30;1.00
6018;DHT22;3037;51.068;13.780;2024-01-25T03:59:15;8.30;1.00
6018;DHT22;3037;51.068;13.780;2024-01-25T04:01:46;8.30;1.00
6018;DHT22;3037;51.068;13.780;2024-01-25T04:04:13;8.20;1.00
6018;DHT22;3037;51.068;13.780;2024-01-25T04:06:44;8.20;1.00
6018;DHT22;3037;51.068;13.780;2024-01-25T04:09:11;8.20;1.00
6018;DHT22;3037;51.068;13.780;2024-01-25T04:11:37;8.20;1.00
6018;DHT22;3037;51.068;13.780;2024-01-25T04:14:03;8.20;1.00
6018;DHT22;3037;51.068;13.780;2024-01-25T04:16:29;8.20;1.00
6018;DHT22;3037;51.068;13.780;2024-01-25T04:18:54;8.20;1.00
6018;DHT22;3037;51.068;13.780;2024-01-25T04:21:19;8.20;1.00
6018;DHT22;3037;51.068;13.780;2024-01-25T04:23:45;8.10;1.00
6018;DHT22;3037;51.068;13.780;2024-01-25T04:26:11;8.10;1.00
6018;DHT22;3037;51.068;13.780;2024-01-25T04:28:36;8.10;1.00
6018;DHT22;3037;51.068;13.780;2024-01-25T04:31:02;8.20;1.00
6018;DHT22;3037;51.068;13.780;2024-01-25T04:33:29;8.10;1.00
6018;DHT22;3037;51.068;13.780;2024-01-25T04:35:54;8.10;1.00
6018;DHT22;3037;51.068;13.780;2024-01-25T04:38:20;8.00;1.00
6018;DHT22;3037;51.068;13.780;2024-01-25T04:40:46;8.10;1.00
6018;DHT22;3037;51.068;13.780;2024-01-25T04:43:11;8.00;1.00
6018;DHT22;3037;51.068;13.780;2024-01-25T04:45:37;8.10;1.00
6018;DHT22;3037;51.068;13.780;2024-01-25T04:48:03;8.10;1.00
6018;DHT22;3037;51.068;13.780;2024-01-25T04:50:29;8.10;1.00
6018;DHT22;3037;51.068;13.780;2024-01-25T04:52:54;8.00;1.00
6018;DHT22;3037;51.068;13.780;2024-01-25T04:55:20;8.00;1.00
6018;DHT22;3037;51.068;13.780;2024-01-25T04:57:46;8.00;1.00
6018;DHT22;3037;51.068;13.780;2024-01-25T05:00:13;8.00;1.00
6018;DHT22;3037;51.068;13.780;2024-01-25T05:02:39;8.00;1.00
6018;DHT22;3037;51.068;13.780;2024-01-25T05:05:04;8.00;1.00
6018;DHT22;3037;51.068;13.780;2024-01-25T05:07:30;8.10;1.00
6018;DHT22;3037;51.068;13.780;2024-01-25T05:09:55;8.10;1.00
6018;DHT22;3037;51.068;13.780;2024-01-25T05:12:21;8.00;1.00
6018;DHT22;3037;51.068;13.780;2024-01-25T05:14:46;8.10;1.00
6018;DHT22;3037;51.068;13.780;2024-01-25T05:17:12;8.10;1.00
6018;DHT22;3037;51.068;13.780;2024-01-25T05:19:37;8.00;1.00
6018;DHT22;3037;51.068;13.780;2024-01-25T05:22:03;8.00;1.00
6018;DHT22;3037;51.068;13.780;2024-01-25T05:24:32;8.00;1.00
6018;DHT22;3037;51.068;13.780;2024-01-25T05:26:58;8.00;1.00
6018;DHT22;3037;51.068;13.780;2024-01-25T05:29:23;8.00;1.00
6018;DHT22;3037;51.068;13.780;2024-01-25T05:31:49;8.00;1.00
6018;DHT22;3037;51.068;13.780;2024-01-25T05:34:15;8.00;1.00
6018;DHT22;3037;51.068;13.780;2024-01-25T05:36:40;8.00;1.00
6018;DHT22;3037;51.068;13.780;2024-01-25T05:39:07;8.30;1.00
6018;DHT22;3037;51.068;13.780;2024-01-25T05:41:33;8.30;1.00
6018;DHT22;3037;51.068;13.780;2024-01-25T05:43:59;8.40;1.00
6018;DHT22;3037;51.068;13.780;2024-01-25T05:46:25;8.30;1.00
6018;DHT22;3037;51.068;13.780;2024-01-25T05:48:50;8.20;1.00
6018;DHT22;3037;51.068;13.780;2024-01-25T05:51:16;8.20;1.00
6018;DHT22;3037;51.068;13.780;2024-01-25T05:53:41;8.10;1.00
6018;DHT22;3037;51.068;13.780;2024-01-25T05:56:06;8.10;1.00
6018;DHT22;3037;51.068;13.780;2024-01-25T05:58:32;8.10;1.00
6018;DHT22;3037;51.068;13.780;2024-01-25T06:00:57;8.10;1.00
6018;DHT22;3037;51.068;13.780;2024-01-25T06:03:23;8.10;1.00
6018;DHT22;3037;51.068;13.780;2024-01-25T06:05:49;8.10;1.00
6018;DHT22;3037;51.068;13.780;2024-01-25T06:08:14;8.10;1.00
6018;DHT22;3037;51.068;13.780;2024-01-25T06:10:40;8.10;1.00
6018;DHT22;3037;51.068;13.780;2024-01-25T06:13:05;8.10;1.00
6018;DHT22;3037;51.068;13.780;2024-01-25T06:15:30;8.10;1.00
6018;DHT22;3037;51.068;13.780;2024-01-25T06:17:56;8.10;1.00
6018;DHT22;3037;51.068;13.780;2024-01-25T06:20:22;8.10;1.00
6018;DHT22;3037;51.068;13.780;2024-01-25T06:22:48;8.10;1.00
6018;DHT22;3037;51.068;13.780;2024-01-25T06:25:14;8.10;1.00
6018;DHT22;3037;51.068;13.780;2024-01-25T06:27:39;8.00;1.00
6018;DHT22;3037;51.068;13.780;2024-01-25T06:30:05;8.00;1.00
6018;DHT22;3037;51.068;13.780;2024-01-25T06:32:31;7.90;1.00
6018;DHT22;3037;51.068;13.780;2024-01-25T06:34:56;7.90;1.00
6018;DHT22;3037;51.068;13.780;2024-01-25T06:37:22;7.80;1.00
6018;DHT22;3037;51.068;13.780;2024-01-25T06:39:47;7.80;1.00
6018;DHT22;3037;51.068;13.780;2024-01-25T06:42:13;7.90;1.00
6018;DHT22;3037;51.068;13.780;2024-01-25T06:44:39;7.80;1.00
6018;DHT22;3037;51.068;13.780;2024-01-25T06:47:04;7.80;1.00
6018;DHT22;3037;51.068;13.780;2024-01-25T06:49:30;7.80;1.00
6018;DHT22;3037;51.068;13.780;2024-01-25T06:51:55;7.80;1.00
6018;DHT22;3037;51.068;13.780;2024-01-25T06:54:21;7.80;1.00
6018;DHT22;3037;51.068;13.780;2024-01-25T06:56:46;7.80;1.00
6018;DHT22;3037;51.068;13.780;2024-01-25T06:59:12;7.80;1.00
6018;DHT22;3037;51.068;13.780;2024-01-25T07:01:37;7.80;1.00
6018;DHT22;3037;51.068;13.780;2024-01-25T07:04:03;7.80;1.00
6018;DHT22;3037;51.068;13.780;2024-01-25T07:06:29;7.80;1.00
6018;DHT22;3037;51.068;13.780;2024-01-25T07:08:54;7.80;1.00
6018;DHT22;3037;51.068;13.780;2024-01-25T07:11:20;7.90;1.00
6018;DHT22;3037;51.068;13.780;2024-01-25T07:13:46;7.80;1.00
6018;DHT22;3037;51.068;13.780;2024-01-25T07:16:12;7.90;1.00
6018;DHT22;3037;51.068;13.780;2024-01-25T07:18:37;7.90;1.00
6018;DHT22;3037;51.068;13.780;2024-01-25T07:21:03;7.90;1.00
6018;DHT22;3037;51.068;13.780;2024-01-25T07:23:29;7.90;1.00
6018;DHT22;3037;51.068;13.780;2024-01-25T07:25:55;8.00;1.00
6018;DHT22;3037;51.068;13.780;2024-01-25T07:28:21;8.00;1.00
6018;DHT22;3037;51.068;13.780;2024-01-25T07:30:47;9.50;1.00
6018;DHT22;3037;51.068;13.780;2024-01-25T07:33:13;8.00;1.00
6018;DHT22;3037;51.068;13.780;2024-01-25T07:35:39;8.00;1.00
6018;DHT22;3037;51.068;13.780;2024-01-25T07:38:13;8.10;1.00
6018;DHT22;3037;51.068;13.780;2024-01-25T07:40:39;8.10;1.00
6018;DHT22;3037;51.068;13.780;2024-01-25T07:43:05;8.20;1.00
6018;DHT22;3037;51.068;13.780;2024-01-25T07:45:31;8.20;1.00
6018;DHT22;3037;51.068;13.780;2024-01-25T07:47:57;8.20;1.00
6018;DHT22;3037;51.068;13.780;2024-01-25T07:50:22;8.30;1.00
6018;DHT22;3037;51.068;13.780;2024-01-25T07:52:48;8.30;1.00
6018;DHT22;3037;51.068;13.780;2024-01-25T07:55:15;8.40;1.00
6018;DHT22;3037;51.068;13.780;2024-01-25T07:57:41;8.30;1.00
6018;DHT22;3037;51.068;13.780;2024-01-25T08:00:07;8.40;1.00
6018;DHT22;3037;51.068;13.780;2024-01-25T08:02:37;8.30;1.00
6018;DHT22;3037;51.068;13.780;2024-01-25T08:05:05;8.20;1.00
6018;DHT22;3037;51.068;13.780;2024-01-25T08:07:31;8.30;1.00
6018;DHT22;3037;51.068;13.780;2024-01-25T08:09:56;8.50;1.00
6018;DHT22;3037;51.068;13.780;2024-01-25T08:12:24;8.40;1.00
6018;DHT22;3037;51.068;13.780;2024-01-25T08:14:50;8.40;1.00
6018;DHT22;3037;51.068;13.780;2024-01-25T08:17:15;8.50;1.00
6018;DHT22;3037;51.068;13.780;2024-01-25T08:19:41;8.50;1.00
6018;DHT22;3037;51.068;13.780;2024-01-25T08:22:07;8.60;1.00
6018;DHT22;3037;51.068;13.780;2024-01-25T08:24:33;8.60;1.00
6018;DHT22;3037;51.068;13.780;2024-01-25T08:26:58;8.70;1.00
6018;DHT22;3037;51.068;13.780;2024-01-25T08:29:24;8.70;1.00
6018;DHT22;3037;51.068;13.780;2024-01-25T08:31:49;8.70;1.00
6018;DHT22;3037;51.068;13.780;2024-01-25T08:34:15;8.70;1.00
6018;DHT22;3037;51.068;13.780;2024-01-25T08:36:40;8.70;1.00
6018;DHT22;3037;51.068;13.780;2024-01-25T08:39:06;8.70;1.00
6018;DHT22;3037;51.068;13.780;2024-01-25T08:41:34;8.70;1.00
6018;DHT22;3037;51.068;13.780;2024-01-25T08:43:59;8.80;1.00
6018;DHT22;3037;51.068;13.780;2024-01-25T08:46:25;8.90;1.00
6018;DHT22;3037;51.068;13.780;2024-01-25T08:48:50;8.90;1.00
6018;DHT22;3037;51.068;13.780;2024-01-25T08:51:16;8.80;1.00
6018;DHT22;3037;51.068;13.780;2024-01-25T08:53:41;8.80;1.00
6018;DHT22;3037;51.068;13.780;2024-01-25T08:56:07;8.70;1.00
6018;DHT22;3037;51.068;13.780;2024-01-25T08:58:32;8.80;1.00
6018;DHT22;3037;51.068;13.780;2024-01-25T09:00:58;8.80;1.00
6018;DHT22;3037;51.068;13.780;2024-01-25T09:03:23;8.80;1.00
6018;DHT22;3037;51.068;13.780;2024-01-25T09:05:49;8.80;1.00
6018;DHT22;3037;51.068;13.780;2024-01-25T09:08:14;8.90;1.00
6018;DHT22;3037;51.068;13.780;2024-01-25T09:10:41;9.00;1.00
6018;DHT22;3037;51.068;13.780;2024-01-25T09:13:06;9.00;1.00
6018;DHT22;3037;51.068;13.780;2024-01-25T09:15:32;9.00;1.00
6018;DHT22;3037;51.068;13.780;2024-01-25T09:17:57;9.20;1.00
6018;DHT22;3037;51.068;13.780;2024-01-25T09:20:23;9.80;1.00
6018;DHT22;3037;51.068;13.780;2024-01-25T09:22:48;9.90;1.00
6018;DHT22;3037;51.068;13.780;2024-01-25T09:25:14;9.60;1.00
6018;DHT22;3037;51.068;13.780;2024-01-25T09:27:39;9.60;1.00
6018;DHT22;3037;51.068;13.780;2024-01-25T09:30:05;9.60;1.00
6018;DHT22;3037;51.068;13.780;2024-01-25T09:32:31;9.70;1.00
6018;DHT22;3037;51.068;13.780;2024-01-25T09:34:57;9.60;1.00
6018;DHT22;3037;51.068;13.780;2024-01-25T09:37:22;9.60;1.00
6018;DHT22;3037;51.068;13.780;2024-01-25T09:39:50;9.60;1.00
6018;DHT22;3037;51.068;13.780;2024-01-25T09:42:17;9.30;1.00
6018;DHT22;3037;51.068;13.780;2024-01-25T09:44:43;9.40;1.00
6018;DHT22;3037;51.068;13.780;2024-01-25T09:47:09;9.30;1.00
6018;DHT22;3037;51.068;13.780;2024-01-25T09:49:34;9.30;1.00
6018;DHT22;3037;51.068;13.780;2024-01-25T09:52:02;9.40;1.00
6018;DHT22;3037;51.068;13.780;2024-01-25T09:54:31;9.50;1.00
6018;DHT22;3037;51.068;13.780;2024-01-25T09:56:59;9.40;1.00
6018;DHT22;3037;51.068;13.780;2024-01-25T09:59:26;9.40;1.00
6018;DHT22;3037;51.068;13.780;2024-01-25T10:01:51;9.50;1.00
6018;DHT22;3037;51.068;13.780;2024-01-25T10:04:17;9.70;1.00
6018;DHT22;3037;51.068;13.780;2024-01-25T10:06:44;9.60;1.00
6018;DHT22;3037;51.068;13.780;2024-01-25T10:09:10;9.60;1.00
6018;DHT22;3037;51.068;13.780;2024-01-25T10:11:36;9.70;1.00
6018;DHT22;3037;51.068;13.780;2024-01-25T10:14:02;9.70;1.00
6018;DHT22;3037;51.068;13.780;2024-01-25T10:16:29;9.50;1.00
6018;DHT22;3037;51.068;13.780;2024-01-25T10:18:55;9.40;1.00
6018;DHT22;3037;51.068;13.780;2024-01-25T10:21:20;9.30;1.00
6018;DHT22;3037;51.068;13.780;2024-01-25T10:23:46;9.30;1.00
6018;DHT22;3037;51.068;13.780;2024-01-25T10:26:12;9.40;1.00
6018;DHT22;3037;51.068;13.780;2024-01-25T10:28:38;9.30;1.00
6018;DHT22;3037;51.068;13.780;2024-01-25T10:31:03;9.30;1.00
6018;DHT22;3037;51.068;13.780;2024-01-25T10:33:30;9.60;1.00
6018;DHT22;3037;51.068;13.780;2024-01-25T10:35:57;10.10;1.00
6018;DHT22;3037;51.068;13.780;2024-01-25T10:38:31;10.70;1.00
6018;DHT22;3037;51.068;13.780;2024-01-25T10:41:02;10.50;1.00
6018;DHT22;3037;51.068;13.780;2024-01-25T10:43:28;10.00;1.00
6018;DHT22;3037;51.068;13.780;2024-01-25T10:45:56;9.90;1.00
6018;DHT22;3037;51.068;13.780;2024-01-25T10:48:24;10.00;1.00
6018;DHT22;3037;51.068;13.780;2024-01-25T10:50:49;9.90;1.00
6018;DHT22;3037;51.068;13.780;2024-01-25T10:53:16;9.80;1.00
6018;DHT22;3037;51.068;13.780;2024-01-25T10:55:42;10.20;1.00
6018;DHT22;3037;51.068;13.780;2024-01-25T10:58:08;10.00;1.00
6018;DHT22;3037;51.068;13.780;2024-01-25T11:00:36;11.10;1.00
6018;DHT22;3037;51.068;13.780;2024-01-25T11:03:04;11.70;1.00
6018;DHT22;3037;51.068;13.780;2024-01-25T11:05:31;10.80;1.00
6018;DHT22;3037;51.068;13.780;2024-01-25T11:07:57;10.60;1.00
6018;DHT22;3037;51.068;13.780;2024-01-25T11:10:26;10.40;1.00
6018;DHT22;3037;51.068;13.780;2024-01-25T11:12:57;10.30;1.00
6018;DHT22;3037;51.068;13.780;2024-01-25T11:15:29;9.60;1.00
6018;DHT22;3037;51.068;13.780;2024-01-25T11:17:55;9.70;1.00
6018;DHT22;3037;51.068;13.780;2024-01-25T11:20:25;9.70;1.00
6018;DHT22;3037;51.068;13.780;2024-01-25T11:23:05;9.60;1.00
6018;DHT22;3037;51.068;13.780;2024-01-25T11:25:32;10.20;1.00
6018;DHT22;3037;51.068;13.780;2024-01-25T11:27:58;10.20;1.00
6018;DHT22;3037;51.068;13.780;2024-01-25T11:30:25;10.20;1.00
6018;DHT22;3037;51.068;13.780;2024-01-25T11:32:51;10.40;1.00
6018;DHT22;3037;51.068;13.780;2024-01-25T11:35:16;10.30;1.00
6018;DHT22;3037;51.068;13.780;2024-01-25T11:37:46;10.10;1.00
6018;DHT22;3037;51.068;13.780;2024-01-25T11:40:13;9.50;1.00
6018;DHT22;3037;51.068;13.780;2024-01-25T11:42:40;9.70;1.00
6018;DHT22;3037;51.068;13.780;2024-01-25T11:45:08;9.80;1.00
6018;DHT22;3037;51.068;13.780;2024-01-25T11:47:35;10.10;1.00
6018;DHT22;3037;51.068;13.780;2024-01-25T11:50:01;10.20;1.00
6018;DHT22;3037;51.068;13.780;2024-01-25T11:52:27;10.40;1.00
6018;DHT22;3037;51.068;13.780;2024-01-25T11:54:52;11.00;1.00
6018;DHT22;3037;51.068;13.780;2024-01-25T11:57:18;11.50;1.00
6018;DHT22;3037;51.068;13.780;2024-01-25T11:59:44;12.80;1.00
6018;DHT22;3037;51.068;13.780;2024-01-25T12:02:12;13.40;1.00
6018;DHT22;3037;51.068;13.780;2024-01-25T12:04:39;13.20;1.00
6018;DHT22;3037;51.068;13.780;2024-01-25T12:07:05;12.20;1.00
6018;DHT22;3037;51.068;13.780;2024-01-25T12:09:30;12.00;1.00
6018;DHT22;3037;51.068;13.780;2024-01-25T12:11:56;12.00;1.00
6018;DHT22;3037;51.068;13.780;2024-01-25T12:14:23;11.90;1.00
6018;DHT22;3037;51.068;13.780;2024-01-25T12:16:49;12.10;1.00
6018;DHT22;3037;51.068;13.780;2024-01-25T12:19:15;11.70;1.00
6018;DHT22;3037;51.068;13.780;2024-01-25T12:21:44;11.20;1.00
6018;DHT22;3037;51.068;13.780;2024-01-25T12:24:10;11.00;1.00
6018;DHT22;3037;51.068;13.780;2024-01-25T12:26:36;10.90;1.00
6018;DHT22;3037;51.068;13.780;2024-01-25T12:29:02;10.90;1.00
6018;DHT22;3037;51.068;13.780;2024-01-25T12:31:28;10.90;1.00
6018;DHT22;3037;51.068;13.780;2024-01-25T12:33:54;11.00;1.00
6018;DHT22;3037;51.068;13.780;2024-01-25T12:36:19;11.20;1.00
6018;DHT22;3037;51.068;13.780;2024-01-25T12:38:45;11.40;1.00
6018;DHT22;3037;51.068;13.780;2024-01-25T12:41:10;11.30;1.00
6018;DHT22;3037;51.068;13.780;2024-01-25T12:43:36;10.80;1.00
6018;DHT22;3037;51.068;13.780;2024-01-25T12:46:02;10.70;1.00
6018;DHT22;3037;51.068;13.780;2024-01-25T12:48:27;10.60;1.00
6018;DHT22;3037;51.068;13.780;2024-01-25T12:50:53;10.60;1.00
6018;DHT22;3037;51.068;13.780;2024-01-25T12:53:19;10.50;1.00
6018;DHT22;3037;51.068;13.780;2024-01-25T12:55:44;10.40;1.00
6018;DHT22;3037;51.068;13.780;2024-01-25T12:58:10;10.10;1.00
6018;DHT22;3037;51.068;13.780;2024-01-25T13:00:35;10.10;1.00
6018;DHT22;3037;51.068;13.780;2024-01-25T13:03:01;10.40;1.00
6018;DHT22;3037;51.068;13.780;2024-01-25T13:05:29;10.50;1.00
6018;DHT22;3037;51.068;13.780;2024-01-25T13:07:59;10.40;1.00
6018;DHT22;3037;51.068;13.780;2024-01-25T13:10:25;9.90;1.00
6018;DHT22;3037;51.068;13.780;2024-01-25T13:12:50;10.10;1.00
6018;DHT22;3037;51.068;13.780;2024-01-25T13:15:16;10.00;1.00
6018;DHT22;3037;51.068;13.780;2024-01-25T13:17:41;9.80;1.00
6018;DHT22;3037;51.068;13.780;2024-01-25T13:20:07;9.50;1.00
6018;DHT22;3037;51.068;13.780;2024-01-25T13:22:34;9.60;1.00
6018;DHT22;3037;51.068;13.780;2024-01-25T13:25:01;9.70;1.00
6018;DHT22;3037;51.068;13.780;2024-01-25T13:27:27;10.00;1.00
6018;DHT22;3037;51.068;13.780;2024-01-25T13:29:53;9.80;1.00
6018;DHT22;3037;51.068;13.780;2024-01-25T13:32:19;10.00;1.00
6018;DHT22;3037;51.068;13.780;2024-01-25T13:34:44;10.20;1.00
6018;DHT22;3037;51.068;13.780;2024-01-25T13:37:10;10.20;1.00
6018;DHT22;3037;51.068;13.780;2024-01-25T13:39:35;10.10;1.00
6018;DHT22;3037;51.068;13.780;2024-01-25T13:42:00;9.80;1.00
6018;DHT22;3037;51.068;13.780;2024-01-25T13:44:26;9.80;1.00
6018;DHT22;3037;51.068;13.780;2024-01-25T13:46:51;9.50;1.00
6018;DHT22;3037;51.068;13.780;2024-01-25T13:49:17;9.70;1.00
6018;DHT22;3037;51.068;13.780;2024-01-25T13:51:46;9.60;1.00
6018;DHT22;3037;51.068;13.780;2024-01-25T13:54:11;9.60;1.00
6018;DHT22;3037;51.068;13.780;2024-01-25T13:56:37;9.60;1.00
6018;DHT22;3037;51.068;13.780;2024-01-25T13:59:03;9.30;1.00
6018;DHT22;3037;51.068;13.780;2024-01-25T14:01:29;9.30;1.00
6018;DHT22;3037;51.068;13.780;2024-01-25T14:03:54;9.40;1.00
6018;DHT22;3037;51.068;13.780;2024-01-25T14:06:20;9.50;1.00
6018;DHT22;3037;51.068;13.780;2024-01-25T14:08:45;9.70;1.00
6018;DHT22;3037;51.068;13.780;2024-01-25T14:11:11;9.50;1.00
6018;DHT22;3037;51.068;13.780;2024-01-25T14:13:37;9.40;1.00
6018;DHT22;3037;51.068;13.780;2024-01-25T14:16:03;9.40;1.00
6018;DHT22;3037;51.068;13.780;2024-01-25T14:18:29;9.20;1.00
6018;DHT22;3037;51.068;13.780;2024-01-25T14:21:00;9.00;1.00
6018;DHT22;3037;51.068;13.780;2024-01-25T14:23:26;9.00;1.00
6018;DHT22;3037;51.068;13.780;2024-01-25T14:25:52;9.00;1.00
6018;DHT22;3037;51.068;13.780;2024-01-25T14:28:17;9.00;1.00
6018;DHT22;3037;51.068;13.780;2024-01-25T14:30:43;9.00;1.00
6018;DHT22;3037;51.068;13.780;2024-01-25T14:33:11;9.00;1.00
6018;DHT22;3037;51.068;13.780;2024-01-25T14:35:37;8.90;1.00
6018;DHT22;3037;51.068;13.780;2024-01-25T14:38:02;8.80;1.00
6018;DHT22;3037;51.068;13.780;2024-01-25T14:40:28;8.90;1.00
6018;DHT22;3037;51.068;13.780;2024-01-25T14:42:54;8.80;1.00
6018;DHT22;3037;51.068;13.780;2024-01-25T14:45:19;8.90;1.00
6018;DHT22;3037;51.068;13.780;2024-01-25T14:47:48;8.70;1.00
6018;DHT22;3037;51.068;13.780;2024-01-25T14:50:14;8.60;1.00
6018;DHT22;3037;51.068;13.780;2024-01-25T14:52:39;8.60;1.00
6018;DHT22;3037;51.068;13.780;2024-01-25T14:55:05;8.60;1.00
6018;DHT22;3037;51.068;13.780;2024-01-25T14:57:30;8.70;1.00
6018;DHT22;3037;51.068;13.780;2024-01-25T14:59:56;8.70;1.00
6018;DHT22;3037;51.068;13.780;2024-01-25T15:02:22;8.60;1.00
6018;DHT22;3037;51.068;13.780;2024-01-25T15:04:47;8.70;1.00
6018;DHT22;3037;51.068;13.780;2024-01-25T15:07:13;8.70;1.00
6018;DHT22;3037;51.068;13.780;2024-01-25T15:09:40;8.70;1.00
6018;DHT22;3037;51.068;13.780;2024-01-25T15:12:07;8.50;1.00
6018;DHT22;3037;51.068;13.780;2024-01-25T15:14:32;8.50;1.00
6018;DHT22;3037;51.068;13.780;2024-01-25T15:16:58;8.50;1.00
6018;DHT22;3037;51.068;13.780;2024-01-25T15:19:23;8.40;1.00
6018;DHT22;3037;51.068;13.780;2024-01-25T15:21:49;8.40;1.00
6018;DHT22;3037;51.068;13.780;2024-01-25T15:24:14;8.30;1.00
6018;DHT22;3037;51.068;13.780;2024-01-25T15:26:41;8.30;1.00
6018;DHT22;3037;51.068;13.780;2024-01-25T15:29:07;8.20;1.00
6018;DHT22;3037;51.068;13.780;2024-01-25T15:31:33;8.20;1.00
6018;DHT22;3037;51.068;13.780;2024-01-25T15:33:58;8.10;1.00
6018;DHT22;3037;51.068;13.780;2024-01-25T15:36:24;8.00;1.00
6018;DHT22;3037;51.068;13.780;2024-01-25T15:38:49;8.10;1.00
6018;DHT22;3037;51.068;13.780;2024-01-25T15:41:15;8.10;1.00
6018;DHT22;3037;51.068;13.780;2024-01-25T15:43:42;8.00;1.00
6018;DHT22;3037;51.068;13.780;2024-01-25T15:46:07;8.00;1.00
6018;DHT22;3037;51.068;13.780;2024-01-25T15:48:33;8.00;1.00
6018;DHT22;3037;51.068;13.780;2024-01-25T15:50:59;8.00;1.00
6018;DHT22;3037;51.068;13.780;2024-01-25T15:53:25;7.90;1.00
6018;DHT22;3037;51.068;13.780;2024-01-25T15:55:50;8.10;1.00
6018;DHT22;3037;51.068;13.780;2024-01-25T15:58:16;8.00;1.00
6018;DHT22;3037;51.068;13.780;2024-01-25T16:00:41;8.10;1.00
6018;DHT22;3037;51.068;13.780;2024-01-25T16:03:07;8.10;1.00
6018;DHT22;3037;51.068;13.780;2024-01-25T16:05:32;8.00;1.00